Time;durP1;ratioP1;P1;durP2;ratioP2;P2;SDS_P1;SDS_P2;PMS_P1;PMS_P2;Temp;Humidity;BMP_temperature;BMP_pressure;BME280_temperature;BME280_humidity;BME280_pressure;Samples;Min_cycle;Max_cycle;Signal;HPM_P1;HPM_P2
2022/12/09 00:01:32;;;;;;;12.05;9.80;;;4.50;99.90;;;;;;5103436;28;20281;-80
2022/12/09 00:04:02;;;;;;;10.68;9.60;;;4.50;99.90;;;;;;5106092;28;20223;-79
2022/12/09 00:06:30;;;;;;;11.35;9.32;;;4.60;99.90;;;;;;5101817;28;20254;-77
2022/12/09 00:09:01;;;;;;;11.35;9.55;;;4.60;99.90;;;;;;5099145;28;20586;-80
2022/12/09 00:11:31;;;;;;;8.77;7.88;;;4.50;99.90;;;;;;5099314;28;20227;-79
2022/12/09 00:13:59;;;;;;;11.43;9.70;;;4.50;99.90;;;;;;5095471;28;20258;-80
2022/12/09 00:16:29;;;;;;;13.30;9.57;;;4.60;99.90;;;;;;5095800;28;20261;-79
2022/12/09 00:18:57;;;;;;;14.60;12.70;;;4.50;99.90;;;;;;5095481;28;20250;-80
2022/12/09 00:21:26;;;;;;;15.88;12.60;;;4.50;99.90;;;;;;5095828;28;20314;-81
2022/12/09 00:23:56;;;;;;;13.35;11.95;;;4.50;99.90;;;;;;5096182;28;20223;-77
2022/12/09 00:26:24;;;;;;;15.38;11.77;;;4.50;99.90;;;;;;5096169;28;20231;-80
2022/12/09 00:28:52;;;;;;;12.48;10.82;;;4.50;99.90;;;;;;5094992;28;20228;-81
2022/12/09 00:31:23;;;;;;;13.68;11.15;;;4.40;99.90;;;;;;5098015;28;20237;-79
2022/12/09 00:33:53;;;;;;;11.20;9.40;;;4.40;99.90;;;;;;5097672;28;20229;-81
2022/12/09 00:36:22;;;;;;;13.48;11.27;;;4.50;99.90;;;;;;5098494;28;20234;-80
2022/12/09 00:38:49;;;;;;;13.90;10.63;;;4.40;99.90;;;;;;5097266;28;20231;-79
2022/12/09 00:41:17;;;;;;;11.65;10.38;;;4.40;99.90;;;;;;5098814;28;20239;-77
2022/12/09 00:43:44;;;;;;;11.93;10.27;;;4.40;99.90;;;;;;5098353;28;20231;-77
2022/12/09 00:46:13;;;;;;;12.35;9.77;;;4.40;99.90;;;;;;5100482;28;20223;-77
2022/12/09 00:48:41;;;;;;;12.43;10.20;;;4.40;99.90;;;;;;5097448;28;20227;-77
2022/12/09 00:51:13;;;;;;;12.68;11.18;;;4.40;99.90;;;;;;5101162;28;20288;-77
2022/12/09 00:53:39;;;;;;;12.10;10.77;;;4.40;99.90;;;;;;5102607;28;20223;-77
2022/12/09 00:56:07;;;;;;;12.40;10.20;;;4.40;99.90;;;;;;5107133;28;20231;-76
2022/12/09 00:58:34;;;;;;;12.77;11.23;;;4.40;99.90;;;;;;5105674;28;20669;-79
2022/12/09 01:01:02;;;;;;;12.00;10.20;;;4.30;99.90;;;;;;5109948;28;20223;-79
2022/12/09 01:03:29;;;;;;;14.02;10.77;;;4.30;99.90;;;;;;5105778;28;20255;-79
2022/12/09 01:05:56;;;;;;;12.77;10.45;;;4.30;99.90;;;;;;5107006;28;20261;-78
2022/12/09 01:08:25;;;;;;;12.55;11.00;;;4.30;99.90;;;;;;5104685;28;20241;-77
2022/12/09 01:10:52;;;;;;;13.13;11.13;;;4.30;99.90;;;;;;5105709;28;20291;-79
2022/12/09 01:13:19;;;;;;;14.43;11.73;;;4.30;99.90;;;;;;5105685;28;20223;-79
2022/12/09 01:15:46;;;;;;;15.13;13.00;;;4.20;99.90;;;;;;5108114;28;20253;-79
2022/12/09 01:18:13;;;;;;;14.95;13.13;;;4.20;99.90;;;;;;5103599;28;20696;-76
2022/12/09 01:20:40;;;;;;;14.40;10.95;;;4.20;99.90;;;;;;5096410;28;20395;-77
2022/12/09 01:23:07;;;;;;;16.13;12.13;;;4.20;99.90;;;;;;5098421;28;20247;-76
2022/12/09 01:25:37;;;;;;;14.55;12.50;;;4.20;99.90;;;;;;5095890;28;20359;-77
2022/12/09 01:28:05;;;;;;;14.05;12.07;;;4.20;99.90;;;;;;5096249;28;20226;-76
2022/12/09 01:30:32;;;;;;;14.20;11.60;;;4.20;99.90;;;;;;5094762;28;20227;-79
2022/12/09 01:32:59;;;;;;;13.10;11.52;;;4.20;99.90;;;;;;5094272;28;20250;-79
2022/12/09 01:35:26;;;;;;;16.13;13.10;;;4.30;99.90;;;;;;5094946;28;20223;-76
2022/12/09 01:37:53;;;;;;;14.65;11.95;;;4.30;99.90;;;;;;5094042;28;20239;-76
2022/12/09 01:40:20;;;;;;;17.35;14.40;;;4.20;99.90;;;;;;5092940;28;20641;-79
2022/12/09 01:42:50;;;;;;;14.13;12.38;;;4.20;99.90;;;;;;5092276;28;20223;-79
2022/12/09 01:45:40;;;;;;;14.80;11.88;;;4.30;99.90;;;;;;5092838;28;20223;-76
2022/12/09 01:48:12;;;;;;;15.07;12.55;;;4.30;99.90;;;;;;5092313;28;20215;-76
2022/12/09 01:50:44;;;;;;;18.77;13.80;;;4.30;99.90;;;;;;5092491;28;20574;-76
2022/12/09 01:53:13;;;;;;;15.15;13.10;;;4.30;99.90;;;;;;5089590;28;20233;-77
2022/12/09 01:55:42;;;;;;;16.70;13.50;;;4.30;99.90;;;;;;5090768;28;20231;-79
2022/12/09 01:58:11;;;;;;;17.95;13.38;;;4.30;99.90;;;;;;5091336;28;20219;-79
2022/12/09 02:00:38;;;;;;;15.80;13.65;;;4.30;99.90;;;;;;5090741;28;20232;-79
2022/12/09 02:03:09;;;;;;;15.52;12.70;;;4.30;99.90;;;;;;5090814;28;20302;-79
2022/12/09 02:05:37;;;;;;;16.92;13.13;;;4.40;99.90;;;;;;5091248;28;20746;-77
2022/12/09 02:08:10;;;;;;;16.45;13.05;;;4.30;99.90;;;;;;5090755;28;20696;-80
2022/12/09 02:10:41;;;;;;;15.30;12.48;;;4.30;99.90;;;;;;5092338;28;20235;-79
2022/12/09 02:13:20;;;;;;;16.73;14.35;;;4.40;99.90;;;;;;5091792;28;20599;-77
2022/12/09 02:15:52;;;;;;;16.55;12.93;;;4.40;99.90;;;;;;5092738;28;20310;-77
2022/12/09 02:18:26;;;;;;;17.90;14.10;;;4.30;99.90;;;;;;5091822;28;20215;-79
2022/12/09 02:20:59;;;;;;;16.38;12.73;;;4.40;99.90;;;;;;5092613;28;20302;-79
2022/12/09 02:23:31;;;;;;;15.43;12.60;;;4.40;99.90;;;;;;5091322;28;20678;-80
2022/12/09 02:26:05;;;;;;;17.05;13.55;;;4.40;99.90;;;;;;5092423;28;20576;-79
2022/12/09 02:29:05;;;;;;;15.45;12.73;;;4.40;99.90;;;;;;5091553;28;20235;-80
2022/12/09 02:31:52;;;;;;;16.50;13.68;;;4.40;99.90;;;;;;5094227;28;20247;-80
2022/12/09 02:34:21;;;;;;;17.08;13.32;;;4.40;99.90;;;;;;5095271;28;20218;-80
2022/12/09 02:36:57;;;;;;;16.10;14.30;;;4.40;99.90;;;;;;5096295;28;20693;-76
2022/12/09 02:39:29;;;;;;;17.60;14.02;;;4.50;99.90;;;;;;5095282;28;20231;-77
2022/12/09 02:41:58;;;;;;;16.60;14.05;;;4.40;99.90;;;;;;5096108;28;20281;-76
2022/12/09 02:44:27;;;;;;;16.25;13.00;;;4.40;99.90;;;;;;5095221;28;20223;-77
2022/12/09 02:46:55;;;;;;;17.33;13.73;;;4.50;99.90;;;;;;5096138;28;20309;-79
2022/12/09 02:49:27;;;;;;;15.15;12.43;;;4.50;99.90;;;;;;5095530;28;20684;-77
2022/12/09 02:51:54;;;;;;;16.35;12.35;;;4.50;99.90;;;;;;5096685;28;20243;-77
2022/12/09 02:54:25;;;;;;;17.60;12.85;;;4.50;99.90;;;;;;5095586;28;20292;-76
2022/12/09 02:56:56;;;;;;;15.82;13.40;;;4.50;99.90;;;;;;5095859;28;20681;-77
2022/12/09 02:59:24;;;;;;;14.90;11.75;;;4.50;99.90;;;;;;5095005;28;20227;-76
2022/12/09 03:02:01;;;;;;;18.35;14.05;;;4.50;99.90;;;;;;5096053;28;20288;-79
2022/12/09 03:04:31;;;;;;;14.80;12.88;;;4.50;99.90;;;;;;5095977;28;20226;-79
2022/12/09 03:07:07;;;;;;;18.38;16.33;;;4.60;99.90;;;;;;5096216;28;20226;-77
2022/12/09 03:09:39;;;;;;;21.20;16.23;;;4.60;99.90;;;;;;5094933;28;20218;-77
2022/12/09 03:12:08;;;;;;;19.67;14.35;;;4.60;99.90;;;;;;5095611;28;20253;-77
2022/12/09 03:14:43;;;;;;;15.75;12.93;;;4.60;99.90;;;;;;5094874;28;20216;-80
2022/12/09 03:17:15;;;;;;;15.85;13.00;;;4.60;99.90;;;;;;5094892;28;20590;-77
2022/12/09 03:19:47;;;;;;;13.63;11.13;;;4.60;99.90;;;;;;5094520;28;20308;-77
2022/12/09 03:22:18;;;;;;;16.73;13.30;;;4.60;99.90;;;;;;5095400;28;20700;-76
2022/12/09 03:24:50;;;;;;;14.70;12.18;;;4.60;99.90;;;;;;5084521;28;20219;-81
2022/12/09 03:27:22;;;;;;;13.13;11.18;;;4.60;99.90;;;;;;5094847;28;20223;-76
2022/12/09 03:29:50;;;;;;;13.73;11.38;;;4.70;99.90;;;;;;5094531;28;20649;-79
2022/12/09 03:32:20;;;;;;;14.25;12.75;;;4.70;99.90;;;;;;5093808;28;20265;-79
2022/12/09 03:34:54;;;;;;;12.95;11.63;;;4.60;99.90;;;;;;5094340;28;20318;-79
2022/12/09 03:37:22;;;;;;;12.30;10.95;;;4.70;99.90;;;;;;5095169;28;20254;-80
2022/12/09 03:39:51;;;;;;;15.70;11.45;;;4.70;99.90;;;;;;5094390;28;20247;-77
2022/12/09 03:42:22;;;;;;;14.38;11.50;;;4.70;99.90;;;;;;5093814;28;20688;-79
2022/12/09 03:44:59;;;;;;;16.58;12.65;;;4.70;99.90;;;;;;5083974;28;20231;-77
2022/12/09 03:47:26;;;;;;;14.77;11.77;;;4.70;99.90;;;;;;5094360;28;20284;-77
2022/12/09 03:49:55;;;;;;;16.48;11.93;;;4.70;99.90;;;;;;5094205;28;20223;-80
2022/12/09 03:52:27;;;;;;;13.05;11.60;;;4.70;99.90;;;;;;5094727;28;20242;-80
2022/12/09 03:54:59;;;;;;;14.52;11.00;;;4.80;99.90;;;;;;5094900;28;20226;-77
2022/12/09 03:57:27;;;;;;;11.80;10.60;;;4.80;99.90;;;;;;5095330;28;20754;-80
2022/12/09 03:59:58;;;;;;;14.10;11.95;;;4.80;99.90;;;;;;5096320;28;20530;-77
2022/12/09 04:02:25;;;;;;;15.88;12.55;;;4.80;99.90;;;;;;5096399;28;20230;-80
2022/12/09 04:04:54;;;;;;;15.30;11.68;;;4.80;99.90;;;;;;5094021;28;20299;-79
2022/12/09 04:07:21;;;;;;;14.45;12.50;;;4.80;99.90;;;;;;5094007;28;20262;-76
2022/12/09 04:09:48;;;;;;;14.43;11.85;;;4.90;99.90;;;;;;5093576;28;20348;-80
2022/12/09 04:12:15;;;;;;;13.32;11.13;;;4.90;99.90;;;;;;5094298;28;20228;-79
2022/12/09 04:14:42;;;;;;;14.82;11.77;;;4.90;99.90;;;;;;5094821;28;20249;-80
2022/12/09 04:17:11;;;;;;;14.82;10.82;;;4.90;99.90;;;;;;5094616;28;20223;-77
2022/12/09 04:19:38;;;;;;;14.18;12.52;;;4.90;99.90;;;;;;5093718;28;20250;-77
2022/12/09 04:22:06;;;;;;;13.90;11.40;;;4.90;99.90;;;;;;5095438;28;20215;-77
2022/12/09 04:24:33;;;;;;;14.50;12.45;;;4.90;99.90;;;;;;5093769;28;20235;-77
2022/12/09 04:27:00;;;;;;;14.57;12.80;;;4.90;99.90;;;;;;5093876;28;20288;-77
2022/12/09 04:29:27;;;;;;;16.05;12.43;;;4.90;99.90;;;;;;5094093;28;20231;-77
2022/12/09 04:31:54;;;;;;;18.23;12.75;;;4.90;99.90;;;;;;5093475;28;20245;-80
2022/12/09 04:34:22;;;;;;;18.25;11.80;;;4.90;99.90;;;;;;5094589;28;20223;-77
2022/12/09 04:36:49;;;;;;;14.57;12.40;;;4.90;99.90;;;;;;5093249;28;20224;-76
2022/12/09 04:39:18;;;;;;;14.00;10.60;;;4.90;99.90;;;;;;5094057;28;20255;-76
2022/12/09 04:41:45;;;;;;;17.60;12.52;;;4.90;99.90;;;;;;5093453;28;20224;-77
2022/12/09 04:44:12;;;;;;;15.35;12.50;;;4.90;99.90;;;;;;5095399;28;20234;-78
2022/12/09 04:46:39;;;;;;;15.30;12.32;;;4.90;99.90;;;;;;5092503;28;20530;-77
2022/12/09 04:49:06;;;;;;;16.70;12.38;;;4.90;99.90;;;;;;5093590;28;20234;-77
2022/12/09 04:51:34;;;;;;;15.45;11.90;;;4.90;99.90;;;;;;5093913;28;20327;-77
2022/12/09 04:54:01;;;;;;;14.13;11.70;;;4.90;99.90;;;;;;5094237;28;20224;-77
2022/12/09 04:56:29;;;;;;;15.70;12.95;;;4.90;99.90;;;;;;5093646;28;20227;-80
2022/12/09 04:58:56;;;;;;;16.15;12.60;;;4.90;99.90;;;;;;5095639;28;20741;-77
2022/12/09 05:01:24;;;;;;;17.05;12.07;;;4.90;99.90;;;;;;5093705;28;20234;-79
2022/12/09 05:03:52;;;;;;;17.33;12.73;;;4.80;99.90;;;;;;5078753;28;20253;-80
2022/12/09 05:06:22;;;;;;;17.38;12.77;;;4.90;99.90;;;;;;5093087;28;20315;-78
2022/12/09 05:08:50;;;;;;;15.93;12.55;;;4.90;99.90;;;;;;5093021;28;20304;-80
2022/12/09 05:11:23;;;;;;;15.48;11.57;;;4.80;99.90;;;;;;5094221;28;20224;-77
2022/12/09 05:13:51;;;;;;;12.88;10.60;;;4.90;99.90;;;;;;5094137;28;20223;-77
2022/12/09 05:16:19;;;;;;;15.38;11.63;;;4.90;99.90;;;;;;5093820;28;20712;-77
2022/12/09 05:18:48;;;;;;;15.63;12.00;;;4.80;99.90;;;;;;5092671;28;20334;-80
2022/12/09 05:21:17;;;;;;;13.52;10.20;;;4.80;99.90;;;;;;5093647;28;20255;-80
2022/12/09 05:23:45;;;;;;;18.02;13.65;;;4.80;99.90;;;;;;5093838;28;20643;-80
2022/12/09 05:26:15;;;;;;;17.67;13.48;;;4.80;99.90;;;;;;5092777;28;20284;-80
2022/12/09 05:28:43;;;;;;;16.52;12.88;;;4.70;99.90;;;;;;5095890;28;20280;-80
2022/12/09 05:31:14;;;;;;;13.35;11.30;;;4.70;99.90;;;;;;5084969;28;20507;-77
2022/12/09 05:33:41;;;;;;;16.23;11.93;;;4.70;99.90;;;;;;5095333;28;20302;-78
2022/12/09 05:36:10;;;;;;;16.58;12.63;;;4.70;99.90;;;;;;5092616;28;20672;-77
2022/12/09 05:38:37;;;;;;;16.95;12.80;;;4.70;99.90;;;;;;5092449;28;20250;-78
2022/12/09 05:41:05;;;;;;;16.50;13.38;;;4.60;99.90;;;;;;5093129;28;20216;-77
2022/12/09 05:43:32;;;;;;;13.68;12.25;;;4.60;99.90;;;;;;5092652;28;20215;-80
2022/12/09 05:46:00;;;;;;;13.43;10.70;;;4.60;99.90;;;;;;5103057;28;20227;-77
2022/12/09 05:48:29;;;;;;;16.13;11.20;;;4.60;99.90;;;;;;5093469;28;20223;-77
2022/12/09 05:50:59;;;;;;;15.88;12.75;;;4.60;99.90;;;;;;5091880;28;20227;-77
2022/12/09 05:53:27;;;;;;;15.93;12.48;;;4.60;99.90;;;;;;5093027;28;20224;-77
2022/12/09 05:55:54;;;;;;;15.23;12.95;;;4.60;99.90;;;;;;5092364;28;20242;-77
2022/12/09 05:58:22;;;;;;;15.23;12.18;;;4.70;99.90;;;;;;5092703;28;20273;-81
2022/12/09 06:00:49;;;;;;;13.40;11.30;;;4.70;99.90;;;;;;5092137;28;20246;-78
2022/12/09 06:03:16;;;;;;;17.42;14.23;;;4.70;99.90;;;;;;5093289;28;20577;-78
2022/12/09 06:05:44;;;;;;;15.77;13.13;;;4.70;99.90;;;;;;5093344;28;20272;-80
2022/12/09 06:08:12;;;;;;;18.33;12.15;;;4.60;99.90;;;;;;5096630;28;20542;-77
2022/12/09 06:10:39;;;;;;;13.77;12.23;;;4.60;99.90;;;;;;5096460;28;20237;-80
2022/12/09 06:13:06;;;;;;;15.73;12.77;;;4.60;99.90;;;;;;5095446;28;20239;-77
2022/12/09 06:15:34;;;;;;;16.30;12.73;;;4.60;99.90;;;;;;5096566;28;20227;-78
2022/12/09 06:18:02;;;;;;;15.45;13.27;;;4.60;99.90;;;;;;5095838;28;20227;-77
2022/12/09 06:20:29;;;;;;;13.48;11.60;;;4.60;99.90;;;;;;5096538;28;20227;-80
2022/12/09 06:22:57;;;;;;;14.63;11.10;;;4.60;99.90;;;;;;5085201;28;20346;-81
2022/12/09 06:25:24;;;;;;;12.95;11.65;;;4.60;99.90;;;;;;5095965;28;20554;-78
2022/12/09 06:27:52;;;;;;;16.15;14.13;;;4.60;99.90;;;;;;5095893;28;20254;-77
2022/12/09 06:30:19;;;;;;;15.18;12.55;;;4.60;99.90;;;;;;5095743;28;20381;-78
2022/12/09 06:32:46;;;;;;;16.33;13.05;;;4.60;99.90;;;;;;5096400;28;20231;-77
2022/12/09 06:35:13;;;;;;;17.92;12.60;;;4.70;99.90;;;;;;5096203;28;20621;-77
2022/12/09 06:37:41;;;;;;;17.75;13.98;;;4.70;99.90;;;;;;5096476;28;20231;-77
2022/12/09 06:40:10;;;;;;;14.73;11.75;;;4.70;99.90;;;;;;5095755;28;20239;-77
2022/12/09 06:42:40;;;;;;;15.63;12.50;;;4.70;99.90;;;;;;5096144;28;20312;-77
2022/12/09 06:45:08;;;;;;;16.85;13.02;;;4.70;99.90;;;;;;5097050;28;20582;-80
2022/12/09 06:47:35;;;;;;;14.02;12.02;;;4.70;99.90;;;;;;5097208;28;20568;-80
2022/12/09 06:50:02;;;;;;;16.42;12.77;;;4.70;99.90;;;;;;5096466;28;20665;-80
2022/12/09 06:52:29;;;;;;;17.17;13.18;;;4.70;99.90;;;;;;5095927;28;20608;-77
2022/12/09 06:54:56;;;;;;;19.30;13.77;;;4.70;99.90;;;;;;5095679;28;20285;-80
2022/12/09 06:57:25;;;;;;;24.45;15.18;;;4.80;99.90;;;;;;5098102;28;20243;-80
2022/12/09 06:59:52;;;;;;;24.55;16.40;;;4.70;99.90;;;;;;5097647;28;20227;-80
2022/12/09 07:02:19;;;;;;;20.15;15.43;;;4.70;99.90;;;;;;5097701;28;20607;-80
2022/12/09 07:04:46;;;;;;;19.02;13.75;;;4.80;99.90;;;;;;5098807;28;20215;-80
2022/12/09 07:07:14;;;;;;;18.30;12.88;;;4.80;99.90;;;;;;5099591;28;20227;-80
2022/12/09 07:09:41;;;;;;;20.80;14.60;;;4.80;99.90;;;;;;5100684;28;20223;-80
2022/12/09 07:12:08;;;;;;;20.33;15.38;;;4.80;99.90;;;;;;5100921;28;20243;-79
2022/12/09 07:14:36;;;;;;;24.20;16.50;;;4.80;99.90;;;;;;5102094;28;20227;-79
2022/12/09 07:17:04;;;;;;;22.45;15.50;;;4.80;99.90;;;;;;5090906;28;20219;-76
2022/12/09 07:19:31;;;;;;;19.15;15.40;;;4.80;99.90;;;;;;5099208;28;20261;-76
2022/12/09 07:21:58;;;;;;;18.75;13.65;;;4.80;99.90;;;;;;5099558;28;20225;-77
2022/12/09 07:24:26;;;;;;;16.38;12.82;;;4.90;99.90;;;;;;5099786;28;20223;-80
2022/12/09 07:26:54;;;;;;;25.35;15.85;;;4.90;99.90;;;;;;5101982;28;20229;-77
2022/12/09 07:29:22;;;;;;;20.40;15.35;;;4.90;99.90;;;;;;5102966;28;20224;-78
2022/12/09 07:31:53;;;;;;;25.15;16.55;;;4.90;99.90;;;;;;5105658;28;20223;-76
2022/12/09 07:34:21;;;;;;;27.02;18.00;;;4.90;99.90;;;;;;5105388;28;20227;-77
2022/12/09 07:36:49;;;;;;;21.17;15.05;;;5.00;99.90;;;;;;5106411;28;20273;-77
2022/12/09 07:39:18;;;;;;;22.42;15.88;;;5.00;99.90;;;;;;5104942;28;20235;-78
2022/12/09 07:41:47;;;;;;;25.23;17.63;;;5.00;99.90;;;;;;5107575;28;20215;-78
2022/12/09 07:44:14;;;;;;;31.90;20.45;;;4.90;99.90;;;;;;5106514;28;20242;-77
2022/12/09 07:46:41;;;;;;;27.05;18.33;;;5.00;99.90;;;;;;5106512;28;20245;-79
2022/12/09 07:49:11;;;;;;;26.15;17.50;;;5.00;99.90;;;;;;5105199;28;20234;-77
2022/12/09 07:51:38;;;;;;;29.40;18.98;;;5.00;99.90;;;;;;5102911;28;20257;-77
2022/12/09 07:54:05;;;;;;;31.38;20.08;;;5.00;99.90;;;;;;5102957;28;20306;-80
2022/12/09 07:56:32;;;;;;;33.38;19.88;;;5.00;99.90;;;;;;5104993;28;20252;-80
2022/12/09 07:58:59;;;;;;;30.98;19.65;;;5.00;99.90;;;;;;5104521;28;20231;-80
2022/12/09 08:01:29;;;;;;;27.70;18.88;;;5.00;99.90;;;;;;5100557;28;20223;-81
2022/12/09 08:03:56;;;;;;;25.35;17.45;;;5.00;99.90;;;;;;5098567;28;20276;-80
2022/12/09 08:06:26;;;;;;;28.27;18.40;;;5.00;99.90;;;;;;5097884;28;20232;-77
2022/12/09 08:08:54;;;;;;;30.50;18.45;;;5.00;99.90;;;;;;5096512;28;20223;-77
2022/12/09 08:11:23;;;;;;;29.48;19.40;;;5.00;99.90;;;;;;5096607;28;20219;-77
2022/12/09 08:13:50;;;;;;;30.00;16.90;;;5.00;99.90;;;;;;5095813;28;20223;-81
2022/12/09 08:16:19;;;;;;;32.10;19.40;;;5.00;99.90;;;;;;5094984;28;20254;-80
2022/12/09 08:18:47;;;;;;;26.73;18.83;;;5.00;99.90;;;;;;5095091;28;20234;-77
2022/12/09 08:21:19;;;;;;;23.70;18.05;;;5.00;99.90;;;;;;5095510;28;20227;-79
2022/12/09 08:23:48;;;;;;;26.65;18.50;;;5.00;99.90;;;;;;5094701;28;20228;-79
2022/12/09 08:26:18;;;;;;;24.75;16.35;;;5.00;99.90;;;;;;5079581;28;20235;-80
2022/12/09 08:28:45;;;;;;;26.98;17.23;;;5.00;99.90;;;;;;5084315;28;20223;-80
2022/12/09 08:31:14;;;;;;;28.13;18.60;;;5.00;99.90;;;;;;5094765;28;20242;-79
2022/12/09 08:33:42;;;;;;;25.42;19.00;;;5.00;99.90;;;;;;5086288;28;20292;-79
2022/12/09 08:36:12;;;;;;;27.77;18.48;;;5.00;99.90;;;;;;5093834;28;20533;-80
2022/12/09 08:38:42;;;;;;;28.13;19.25;;;5.00;99.90;;;;;;5093398;28;20238;-77
2022/12/09 08:41:14;;;;;;;29.50;19.02;;;5.00;99.90;;;;;;5086976;28;20262;-77
2022/12/09 08:43:42;;;;;;;31.35;19.42;;;4.90;99.90;;;;;;5073664;28;20548;-80
2022/12/09 08:46:10;;;;;;;28.10;19.10;;;5.00;99.90;;;;;;5072993;28;20249;-76
2022/12/09 08:48:38;;;;;;;25.75;18.58;;;5.00;99.90;;;;;;5073442;28;20692;-80
2022/12/09 08:51:05;;;;;;;27.17;18.30;;;5.00;99.90;;;;;;5073797;28;20250;-80
2022/12/09 08:53:32;;;;;;;26.98;18.58;;;5.00;99.90;;;;;;5073859;28;20297;-77
2022/12/09 08:55:59;;;;;;;28.67;19.40;;;5.00;99.90;;;;;;5074069;28;20243;-77
2022/12/09 08:58:29;;;;;;;34.55;19.00;;;5.00;99.90;;;;;;5072967;28;20223;-77
2022/12/09 09:00:57;;;;;;;26.63;17.27;;;5.00;99.90;;;;;;5074080;28;20224;-77
2022/12/09 09:03:24;;;;;;;30.17;18.50;;;5.00;99.90;;;;;;5073003;28;20216;-79
2022/12/09 09:05:51;;;;;;;25.33;18.23;;;5.00;99.90;;;;;;5073768;28;20220;-78
2022/12/09 09:08:18;;;;;;;25.02;17.55;;;5.00;99.90;;;;;;5072867;28;20572;-78
2022/12/09 09:10:45;;;;;;;24.50;17.05;;;5.00;99.90;;;;;;5072855;28;20558;-77
2022/12/09 09:13:12;;;;;;;22.85;16.40;;;5.00;99.90;;;;;;5082736;28;20335;-78
2022/12/09 09:15:40;;;;;;;23.30;17.20;;;5.00;99.90;;;;;;5092410;28;20219;-77
2022/12/09 09:18:07;;;;;;;28.50;18.13;;;5.10;99.90;;;;;;5093357;28;20226;-78
2022/12/09 09:20:34;;;;;;;25.73;18.08;;;5.00;99.90;;;;;;5092907;28;20230;-77
2022/12/09 09:23:01;;;;;;;25.33;17.50;;;5.00;99.90;;;;;;5093415;28;20269;-78
2022/12/09 09:25:28;;;;;;;26.20;18.27;;;5.10;99.90;;;;;;5093109;28;20246;-77
2022/12/09 09:27:55;;;;;;;30.50;18.63;;;5.10;99.90;;;;;;5079524;28;20224;-77
2022/12/09 09:30:22;;;;;;;24.52;18.83;;;5.10;99.90;;;;;;5091897;28;20269;-77
2022/12/09 09:32:50;;;;;;;28.63;18.00;;;5.10;99.90;;;;;;5084160;28;20224;-78
2022/12/09 09:35:17;;;;;;;28.77;19.50;;;5.10;99.90;;;;;;5093105;28;20263;-78
2022/12/09 09:37:44;;;;;;;27.58;19.73;;;5.10;99.90;;;;;;5092718;28;20231;-77
2022/12/09 09:40:12;;;;;;;31.85;19.48;;;5.10;99.90;;;;;;5094139;28;20238;-77
2022/12/09 09:42:48;;;;;;;25.15;17.20;;;5.10;99.90;;;;;;5097147;28;20223;-78
2022/12/09 09:45:19;;;;;;;28.58;20.40;;;5.20;99.90;;;;;;5096596;28;20222;-79
2022/12/09 09:47:49;;;;;;;29.02;18.60;;;5.10;99.90;;;;;;5097197;28;20696;-77
2022/12/09 09:50:30;;;;;;;27.83;18.58;;;5.10;99.90;;;;;;5096204;28;20265;-77
2022/12/09 09:52:57;;;;;;;37.13;20.65;;;5.10;99.90;;;;;;5096707;28;20227;-77
2022/12/09 09:55:36;;;;;;;28.35;19.10;;;5.10;99.90;;;;;;5096211;28;20226;-77
2022/12/09 09:58:13;;;;;;;23.48;18.80;;;5.10;99.90;;;;;;5097094;28;20215;-76
2022/12/09 10:00:47;;;;;;;29.65;20.05;;;5.10;99.90;;;;;;5096881;28;20253;-76
2022/12/09 10:03:26;;;;;;;33.10;21.20;;;5.10;99.90;;;;;;5097038;28;20261;-77
2022/12/09 10:05:57;;;;;;;38.22;20.00;;;5.00;99.90;;;;;;5097488;28;20305;-77
2022/12/09 10:08:36;;;;;;;26.10;17.40;;;5.00;99.90;;;;;;5096553;28;20230;-77
2022/12/09 10:11:14;;;;;;;27.02;18.38;;;5.00;99.90;;;;;;5096177;28;20219;-77
2022/12/09 10:13:53;;;;;;;25.73;19.10;;;5.00;99.90;;;;;;5096374;28;20231;-77
2022/12/09 10:16:24;;;;;;;24.15;17.23;;;5.10;99.90;;;;;;5096204;28;20231;-76
2022/12/09 10:19:01;;;;;;;27.70;19.15;;;5.10;99.90;;;;;;5097120;28;20710;-77
2022/12/09 10:21:32;;;;;;;29.10;18.45;;;5.10;99.90;;;;;;5078881;28;20242;-76
2022/12/09 10:24:13;;;;;;;24.23;16.17;;;5.00;99.90;;;;;;5096687;28;20226;-76
2022/12/09 10:26:40;;;;;;;28.13;18.23;;;5.00;99.90;;;;;;5097249;28;20226;-77
2022/12/09 10:29:15;;;;;;;24.73;17.10;;;5.00;99.90;;;;;;5096659;28;20223;-77
2022/12/09 10:31:42;;;;;;;29.55;20.23;;;5.00;99.90;;;;;;5084039;28;20305;-76
2022/12/09 10:34:10;;;;;;;29.48;18.08;;;5.00;99.90;;;;;;5094842;28;20277;-76
2022/12/09 10:36:42;;;;;;;28.15;20.48;;;5.00;99.90;;;;;;5096701;28;20281;-76
2022/12/09 10:39:15;;;;;;;24.42;16.60;;;5.00;99.90;;;;;;5095945;28;20235;-77
2022/12/09 10:44:29;;;;;;;21.83;17.00;;;5.00;99.90;;;;;;5096123;28;20671;-76
2022/12/09 10:46:59;;;;;;;28.23;20.23;;;5.10;99.90;;;;;;5096066;28;20303;-76
2022/12/09 10:49:26;;;;;;;34.92;21.27;;;5.00;99.90;;;;;;5095755;28;20284;-76
2022/12/09 10:51:55;;;;;;;28.83;20.63;;;5.00;99.90;;;;;;5094426;28;20264;-77
2022/12/09 10:54:36;;;;;;;34.15;22.60;;;5.00;99.90;;;;;;5095453;28;20227;-76
2022/12/09 10:57:08;;;;;;;31.33;19.05;;;5.00;99.90;;;;;;5088679;28;20287;-77
2022/12/09 10:59:36;;;;;;;33.30;23.35;;;5.00;99.90;;;;;;5082617;28;20223;-77
2022/12/09 11:02:19;;;;;;;39.92;23.92;;;5.00;99.90;;;;;;5095703;28;20219;-77
2022/12/09 11:05:24;;;;;;;36.45;24.45;;;5.10;99.90;;;;;;5069849;28;20232;-78
2022/12/09 11:07:54;;;;;;;37.40;24.13;;;5.00;99.90;;;;;;5075897;28;20216;-80
2022/12/09 11:10:24;;;;;;;34.30;21.17;;;5.00;99.90;;;;;;5076644;28;20621;-80
2022/12/09 11:12:53;;;;;;;30.13;21.98;;;5.00;99.90;;;;;;5079775;28;20231;-80
2022/12/09 11:15:38;;;;;;;37.20;22.88;;;5.00;99.90;;;;;;5076071;28;20570;-80
2022/12/09 11:18:14;;;;;;;31.05;21.35;;;5.00;99.90;;;;;;5075607;28;20325;-80
2022/12/09 11:20:57;;;;;;;35.22;22.20;;;5.00;99.90;;;;;;5076013;28;20235;-80
2022/12/09 11:23:26;;;;;;;32.30;22.58;;;5.00;99.90;;;;;;5076053;28;20211;-80
2022/12/09 11:25:56;;;;;;;29.95;20.40;;;5.00;99.90;;;;;;5075692;28;20220;-79
2022/12/09 11:28:27;;;;;;;37.00;22.90;;;5.00;99.90;;;;;;5075192;28;20697;-79
2022/12/09 11:30:57;;;;;;;37.83;20.20;;;5.10;99.90;;;;;;5094587;28;20280;-77
2022/12/09 11:33:28;;;;;;;36.13;21.23;;;5.10;99.90;;;;;;5094919;28;20288;-77
2022/12/09 11:36:00;;;;;;;30.80;21.48;;;5.10;99.90;;;;;;5095935;28;20229;-77
2022/12/09 11:38:37;;;;;;;36.10;21.35;;;5.10;99.90;;;;;;5093697;28;20223;-77
2022/12/09 11:41:13;;;;;;;33.53;22.77;;;5.00;99.90;;;;;;5100985;28;20223;-77
2022/12/09 11:43:43;;;;;;;32.35;19.38;;;5.00;99.90;;;;;;5096366;28;20230;-76
2022/12/09 11:46:21;;;;;;;36.13;23.92;;;5.00;99.90;;;;;;5095629;28;20306;-77
2022/12/09 11:48:56;;;;;;;33.35;22.13;;;5.00;99.90;;;;;;5093946;28;20231;-77
2022/12/09 11:51:27;;;;;;;29.92;19.90;;;5.00;99.90;;;;;;5097024;28;20702;-77
2022/12/09 11:54:01;;;;;;;33.03;21.50;;;5.00;99.90;;;;;;5094865;28;20223;-77
2022/12/09 11:56:29;;;;;;;35.15;21.83;;;4.90;99.90;;;;;;5095073;28;20227;-76
2022/12/09 11:59:02;;;;;;;35.83;23.98;;;4.90;99.90;;;;;;5095078;28;20691;-78
2022/12/09 12:01:40;;;;;;;36.08;24.42;;;4.80;99.90;;;;;;5095332;28;20237;-77
2022/12/09 12:04:11;;;;;;;38.70;25.92;;;4.80;99.90;;;;;;5094005;28;20222;-77
2022/12/09 12:06:45;;;;;;;36.65;23.73;;;4.80;99.90;;;;;;5093769;28;20223;-77
2022/12/09 12:09:21;;;;;;;39.78;27.10;;;4.70;99.90;;;;;;5094956;28;20602;-77
2022/12/09 12:11:55;;;;;;;43.33;26.08;;;4.70;99.90;;;;;;5095302;28;20239;-77
2022/12/09 12:14:31;;;;;;;43.72;28.92;;;4.80;99.90;;;;;;5095580;28;20234;-77
2022/12/09 12:17:08;;;;;;;48.15;27.13;;;4.80;99.90;;;;;;5094110;28;20581;-78
2022/12/09 12:19:39;;;;;;;45.10;27.38;;;4.80;99.90;;;;;;5094213;28;20521;-77
2022/12/09 12:22:32;;;;;;;42.40;28.15;;;4.90;99.90;;;;;;5094165;28;20235;-78
2022/12/09 12:25:23;;;;;;;47.97;30.13;;;4.90;99.90;;;;;;5094352;28;20346;-78
2022/12/09 12:28:22;;;;;;;40.00;27.85;;;4.90;99.90;;;;;;5094134;28;20219;-78
2022/12/09 12:30:57;;;;;;;45.83;30.73;;;4.80;99.90;;;;;;5089626;28;20223;-78
2022/12/09 12:33:41;;;;;;;40.65;28.25;;;4.90;99.90;;;;;;5093570;28;20238;-77
2022/12/09 12:36:19;;;;;;;43.58;27.77;;;4.80;99.90;;;;;;5093200;28;20231;-77
2022/12/09 12:39:00;;;;;;;36.80;25.52;;;4.90;99.90;;;;;;5093487;28;20371;-77
2022/12/09 12:41:41;;;;;;;43.97;29.85;;;4.80;99.90;;;;;;5094097;28;20310;-77
2022/12/09 12:47:18;;;;;;;32.35;23.80;;;4.80;99.90;;;;;;5071030;28;20249;-77
2022/12/09 12:50:19;;;;;;;35.95;24.60;;;4.80;99.90;;;;;;5072461;28;20251;-77
2022/12/09 12:52:56;;;;;;;36.55;23.02;;;4.80;99.90;;;;;;5067227;28;20223;-77
2022/12/09 12:55:38;;;;;;;35.03;23.48;;;4.70;99.90;;;;;;5072934;28;20666;-77
2022/12/09 12:58:17;;;;;;;32.03;21.55;;;4.70;99.90;;;;;;5072751;28;20292;-78
2022/12/09 13:00:57;;;;;;;30.85;21.60;;;4.70;99.90;;;;;;5072303;28;20704;-77